MPTOSKSP

Guest
Details From MPTO - Tocumen Intl
To SKSP - GUSTAVO ROJAS PINILLA
Flight Number -
Tags generated
Created
Modified
Stats Distance 256 nm / 474 km
Max Altitude 30,400 ft / 9,266 m
Waypoints 4
Social Downloads 0
Likes 0
Share VATSIM

Download

Looking for another format? Having issues loading an existing format? Contact us
Advertisement - Login to hide

Notes

Basic altitude profile: - Ascent Rate: 2500ft/min - Ascent Speed: 250kts - Cruise Altitude: 35000ft - Cruise Speed: 420kts - Descent Rate: 1500ft/min - Descent Speed: 250kts Options: - Use NATs: yes - Use PACOTS: yes - Use low airways: yes - Use high airways: yes

Route

MPTO SEKMA UG447 SPP SKSP

ID Type Via Altitude Latitude Longitude Leg Dist Tot Dist Heading (true) Name
O MPTO APT - 0 ft / 0 m 9.07136˚ -79.38346˚ - 0 nm - Tocumen Intl
SEKMA FIX - 30,400 ft / 9,266 m 10.41956˚ -79.84064˚ 85 nm 85 nm 342° / 341° -
SPP VOR UG447 (AWY-HI) 18,500 ft / 5,639 m 12.58250˚ -81.70500˚ 170 nm 255 nm 320° / 320° SAN ANDRES VOR-DME
O SKSP APT - 0 ft / 0 m 12.58359˚ -81.71119˚ 0 nm 255 nm 280° / 280° GUSTAVO ROJAS PINILLA

Altitude Profile

Advertisement - Login to hide

Weather


0- 5 10 15 20 25 30 35+ Temperature / ° C

Clouds and Precipitation
Forecast for 2017-12-17 00:00 UTC. Updated 2 hours ago

Ground ~20,000 ft ~40,000 ft Winds

MPTO

Details ICAO MPTO (PTY)
Name Tocumen Intl
Region Panama
Timezone America/Panama (UTC-5.0)
Stats Elevation 135 ft / 41 m (AMSL)
Location 9.071364° -79.383458°
Runways 2
Magnetic Variation 4.532° W

METAR

MPTO 162200Z 02010KT 9000 SCT018 31/22 Q1007 NOSIG

Decode

TAF

TAF MPTO 161100Z 1612/1718 29006KT 9999 SCT018 TEMPO 1614/1617 06005KT TEMPO 1617/1620 18003KT

Decode

Departure Runways

ID Width Length Bearing (true) Bearing (mag) Surface Threshold Offset Overrun Length
03L 200 ft / 61 m 8,798 ft / 2,682 m 30.67° 35.20° Asphalt 0 ft / 0 m 0 ft / 0 m
03R 148 ft / 45 m 10,008 ft / 3,051 m 29.33° 33.86° Concrete 0 ft / 0 m 198 ft / 60 m
21L 148 ft / 45 m 10,008 ft / 3,051 m 209.33° 213.86° Concrete 0 ft / 0 m 198 ft / 60 m
21R 200 ft / 61 m 8,798 ft / 2,682 m 210.67° 215.20° Asphalt 0 ft / 0 m 0 ft / 0 m

SKSP

Details ICAO SKSP (ADZ)
Name GUSTAVO ROJAS PINILLA
Region Colombia
Timezone Unknown (UTC+0.0)
Stats Elevation 19 ft / 6 m (AMSL)
Location 12.583595° -81.711191°
Runways 1
Magnetic Variation 3.678° W

METAR

SKSP 162200Z 04015KT 9999 FEW020 29/24 A2986

Decode

TAF

TAF SKSP 161100Z 1612/1712 07010KT 9999 FEW017 TX31/1619Z TN26/1711Z

Decode

Destination Runways

ID Width Length Bearing (true) Bearing (mag) Surface Threshold Offset Overrun Length
06 148 ft / 45 m 7,815 ft / 2,382 m 59.54° 63.22° Asphalt 0 ft / 0 m 0 ft / 0 m
24 148 ft / 45 m 7,815 ft / 2,382 m 239.55° 243.23° Asphalt 0 ft / 0 m 180 ft / 55 m

Popular Alternatives